<?xml version="1.0" encoding="UTF-8" standalone="no" ?>
<gpx xmlns="http://www.topografix.com/GPX/1/1" xmlns:xsi="http://www.w3.org/2001/XMLSchema-instance" xsi:schemaLocation="http://www.topografix.com/GPX/1/1 http://www.topografix.com/GPX/1/1/gpx.xsd" version="1.1" creator="VisuGPX - https://www.visugpx.com">
  <metadata>
    <name>Norvège</name>
  </metadata>
  <trk>
    <name><![CDATA[Tour d'Europe: étape 054]]></name>
    <trkseg>
      <trkpt lat="68.16149" lon="13.58349">
        <ele>50.66414</ele>
        <time>2020-08-21T07:56:50.741Z</time>
      </trkpt>
      <trkpt lat="68.16339" lon="13.58574">
        <ele>58.562147</ele>
        <time>2020-08-21T07:58:05.739Z</time>
      </trkpt>
      <trkpt lat="68.16353" lon="13.59134">
        <ele>60.432024</ele>
        <time>2020-08-21T07:59:15.755Z</time>
      </trkpt>
      <trkpt lat="68.16294" lon="13.5967">
        <ele>62.223897</ele>
        <time>2020-08-21T08:00:33.750Z</time>
      </trkpt>
      <trkpt lat="68.16228" lon="13.60268">
        <ele>60.49918</ele>
        <time>2020-08-21T08:01:23.735Z</time>
      </trkpt>
      <trkpt lat="68.16157" lon="13.60934">
        <ele>57.220935</ele>
        <time>2020-08-21T08:02:16.749Z</time>
      </trkpt>
      <trkpt lat="68.16066" lon="13.61513">
        <ele>54.743864</ele>
        <time>2020-08-21T08:02:54.737Z</time>
      </trkpt>
      <trkpt lat="68.15885" lon="13.61885">
        <ele>55.76779</ele>
        <time>2020-08-21T08:03:49.757Z</time>
      </trkpt>
      <trkpt lat="68.15656" lon="13.62054">
        <ele>51.050029</ele>
        <time>2020-08-21T08:04:31.732Z</time>
      </trkpt>
      <trkpt lat="68.15508" lon="13.62291">
        <ele>46.380059</ele>
        <time>2020-08-21T08:05:26.765Z</time>
      </trkpt>
      <trkpt lat="68.15291" lon="13.62175">
        <ele>47.02509</ele>
        <time>2020-08-21T08:06:09.765Z</time>
      </trkpt>
      <trkpt lat="68.15072" lon="13.62092">
        <ele>48.048286</ele>
        <time>2020-08-21T08:06:53.739Z</time>
      </trkpt>
      <trkpt lat="68.15015" lon="13.62448">
        <ele>48.231358</ele>
        <time>2020-08-21T08:07:49.736Z</time>
      </trkpt>
      <trkpt lat="68.15034" lon="13.62955">
        <ele>54.404499</ele>
        <time>2020-08-21T08:09:21.754Z</time>
      </trkpt>
      <trkpt lat="68.14922" lon="13.63485">
        <ele>61.445314</ele>
        <time>2020-08-21T08:10:32.733Z</time>
      </trkpt>
      <trkpt lat="68.1479" lon="13.63938">
        <ele>61.716094</ele>
        <time>2020-08-21T08:11:50.776Z</time>
      </trkpt>
      <trkpt lat="68.14615" lon="13.64027">
        <ele>45.75076</ele>
        <time>2020-08-21T08:12:38.778Z</time>
      </trkpt>
      <trkpt lat="68.14526" lon="13.64544">
        <ele>47.967013</ele>
        <time>2020-08-21T08:13:31.737Z</time>
      </trkpt>
      <trkpt lat="68.14597" lon="13.65058">
        <ele>52.364652</ele>
        <time>2020-08-21T08:14:48.768Z</time>
      </trkpt>
      <trkpt lat="68.14717" lon="13.65385">
        <ele>51.291302</ele>
        <time>2020-08-21T08:17:44.741Z</time>
      </trkpt>
      <trkpt lat="68.1488" lon="13.65725">
        <ele>56.844928</ele>
        <time>2020-08-21T08:19:02.755Z</time>
      </trkpt>
      <trkpt lat="68.14866" lon="13.66343">
        <ele>56.783663</ele>
        <time>2020-08-21T08:20:04.780Z</time>
      </trkpt>
      <trkpt lat="68.14888" lon="13.66907">
        <ele>64.177217</ele>
        <time>2020-08-21T08:21:18.809Z</time>
      </trkpt>
      <trkpt lat="68.15063" lon="13.67162">
        <ele>76.641798</ele>
        <time>2020-08-21T08:23:07.748Z</time>
      </trkpt>
      <trkpt lat="68.15221" lon="13.67447">
        <ele>87.07442</ele>
        <time>2020-08-21T08:25:00.747Z</time>
      </trkpt>
      <trkpt lat="68.15339" lon="13.67848">
        <ele>97.792076</ele>
        <time>2020-08-21T08:27:00.760Z</time>
      </trkpt>
      <trkpt lat="68.15464" lon="13.68284">
        <ele>108.911654</ele>
        <time>2020-08-21T08:28:45.736Z</time>
      </trkpt>
      <trkpt lat="68.15568" lon="13.6873">
        <ele>119.093508</ele>
        <time>2020-08-21T08:30:39.757Z</time>
      </trkpt>
      <trkpt lat="68.1571" lon="13.69087">
        <ele>133.621771</ele>
        <time>2020-08-21T08:32:39.759Z</time>
      </trkpt>
      <trkpt lat="68.15772" lon="13.69557">
        <ele>144.595205</ele>
        <time>2020-08-21T08:34:46.771Z</time>
      </trkpt>
      <trkpt lat="68.15675" lon="13.70055">
        <ele>152.762836</ele>
        <time>2020-08-21T08:36:40.777Z</time>
      </trkpt>
      <trkpt lat="68.15627" lon="13.70657">
        <ele>147.498167</ele>
        <time>2020-08-21T08:37:26.761Z</time>
      </trkpt>
      <trkpt lat="68.15611" lon="13.71267">
        <ele>129.54747</ele>
        <time>2020-08-21T08:37:46.775Z</time>
      </trkpt>
      <trkpt lat="68.15628" lon="13.72047">
        <ele>112.251181</ele>
        <time>2020-08-21T08:38:06.756Z</time>
      </trkpt>
      <trkpt lat="68.15578" lon="13.72845">
        <ele>87.972119</ele>
        <time>2020-08-21T08:38:27.764Z</time>
      </trkpt>
      <trkpt lat="68.15567" lon="13.73518">
        <ele>62.133044</ele>
        <time>2020-08-21T08:38:47.755Z</time>
      </trkpt>
      <trkpt lat="68.15668" lon="13.7412">
        <ele>44.852263</ele>
        <time>2020-08-21T08:39:07.753Z</time>
      </trkpt>
      <trkpt lat="68.15726" lon="13.74714">
        <ele>34.929016</ele>
        <time>2020-08-21T08:39:35.744Z</time>
      </trkpt>
      <trkpt lat="68.15694" lon="13.75361">
        <ele>33.58831</ele>
        <time>2020-08-21T08:40:19.755Z</time>
      </trkpt>
      <trkpt lat="68.15652" lon="13.76008">
        <ele>34.646703</ele>
        <time>2020-08-21T08:40:59.776Z</time>
      </trkpt>
      <trkpt lat="68.15672" lon="13.76565">
        <ele>40.777395</ele>
        <time>2020-08-21T08:41:47.748Z</time>
      </trkpt>
      <trkpt lat="68.15663" lon="13.77142">
        <ele>47.617716</ele>
        <time>2020-08-21T08:43:01.739Z</time>
      </trkpt>
      <trkpt lat="68.15633" lon="13.77752">
        <ele>48.550719</ele>
        <time>2020-08-21T08:44:00.750Z</time>
      </trkpt>
      <trkpt lat="68.15742" lon="13.7813">
        <ele>47.82211</ele>
        <time>2020-08-21T08:44:54.762Z</time>
      </trkpt>
      <trkpt lat="68.15944" lon="13.78166">
        <ele>40.681202</ele>
        <time>2020-08-21T08:45:34.752Z</time>
      </trkpt>
      <trkpt lat="68.16181" lon="13.78262">
        <ele>41.570031</ele>
        <time>2020-08-21T08:46:25.746Z</time>
      </trkpt>
      <trkpt lat="68.16337" lon="13.78734">
        <ele>39.431477</ele>
        <time>2020-08-21T08:47:08.754Z</time>
      </trkpt>
      <trkpt lat="68.1646" lon="13.79187">
        <ele>35.749001</ele>
        <time>2020-08-21T08:47:51.755Z</time>
      </trkpt>
      <trkpt lat="68.16498" lon="13.79788">
        <ele>37.175565</ele>
        <time>2020-08-21T08:48:51.759Z</time>
      </trkpt>
      <trkpt lat="68.16656" lon="13.80298">
        <ele>34.476979</ele>
        <time>2020-08-21T08:49:36.806Z</time>
      </trkpt>
      <trkpt lat="68.16692" lon="13.80864">
        <ele>31.78757</ele>
        <time>2020-08-21T08:50:18.744Z</time>
      </trkpt>
      <trkpt lat="68.16735" lon="13.81417">
        <ele>30.290542</ele>
        <time>2020-08-21T08:50:59.788Z</time>
      </trkpt>
      <trkpt lat="68.16754" lon="13.82003">
        <ele>31.234246</ele>
        <time>2020-08-21T08:51:42.740Z</time>
      </trkpt>
      <trkpt lat="68.16718" lon="13.82574">
        <ele>33.616633</ele>
        <time>2020-08-21T08:52:33.772Z</time>
      </trkpt>
      <trkpt lat="68.1673" lon="13.83205">
        <ele>32.157693</ele>
        <time>2020-08-21T08:53:16.765Z</time>
      </trkpt>
      <trkpt lat="68.16766" lon="13.83751">
        <ele>36.476233</ele>
        <time>2020-08-21T08:54:08.739Z</time>
      </trkpt>
      <trkpt lat="68.1683" lon="13.84274">
        <ele>40.681178</ele>
        <time>2020-08-21T08:55:11.757Z</time>
      </trkpt>
      <trkpt lat="68.17023" lon="13.84515">
        <ele>42.003888</ele>
        <time>2020-08-21T08:56:11.760Z</time>
      </trkpt>
      <trkpt lat="68.17244" lon="13.84754">
        <ele>39.247041</ele>
        <time>2020-08-21T08:57:02.762Z</time>
      </trkpt>
      <trkpt lat="68.17441" lon="13.84867">
        <ele>37.66607</ele>
        <time>2020-08-21T08:57:43.748Z</time>
      </trkpt>
      <trkpt lat="68.1765" lon="13.8492">
        <ele>38.138345</ele>
        <time>2020-08-21T08:58:32.748Z</time>
      </trkpt>
      <trkpt lat="68.17869" lon="13.84942">
        <ele>37.527798</ele>
        <time>2020-08-21T08:59:14.752Z</time>
      </trkpt>
      <trkpt lat="68.1805" lon="13.85249">
        <ele>38.998534</ele>
        <time>2020-08-21T09:00:12.765Z</time>
      </trkpt>
      <trkpt lat="68.18263" lon="13.85369">
        <ele>42.067236</ele>
        <time>2020-08-21T09:01:10.767Z</time>
      </trkpt>
      <trkpt lat="68.18373" lon="13.85923">
        <ele>40.894668</ele>
        <time>2020-08-21T09:01:57.802Z</time>
      </trkpt>
      <trkpt lat="68.18568" lon="13.85913">
        <ele>38.666654</ele>
        <time>2020-08-21T09:02:49.779Z</time>
      </trkpt>
      <trkpt lat="68.18785" lon="13.85933">
        <ele>38.347663</ele>
        <time>2020-08-21T09:03:31.757Z</time>
      </trkpt>
      <trkpt lat="68.19" lon="13.86077">
        <ele>37.750406</ele>
        <time>2020-08-21T09:04:13.765Z</time>
      </trkpt>
      <trkpt lat="68.19196" lon="13.8648">
        <ele>36.654038</ele>
        <time>2020-08-21T09:05:13.761Z</time>
      </trkpt>
      <trkpt lat="68.19259" lon="13.87083">
        <ele>36.573299</ele>
        <time>2020-08-21T09:06:13.769Z</time>
      </trkpt>
      <trkpt lat="68.19416" lon="13.87492">
        <ele>37.162668</ele>
        <time>2020-08-21T09:07:16.767Z</time>
      </trkpt>
      <trkpt lat="68.19579" lon="13.87742">
        <ele>37.082596</ele>
        <time>2020-08-21T09:08:03.791Z</time>
      </trkpt>
      <trkpt lat="68.19691" lon="13.88252">
        <ele>35.282572</ele>
        <time>2020-08-21T09:09:00.793Z</time>
      </trkpt>
      <trkpt lat="68.1991" lon="13.88462">
        <ele>35.98986</ele>
        <time>2020-08-21T09:09:54.763Z</time>
      </trkpt>
      <trkpt lat="68.2011" lon="13.88261">
        <ele>37.289799</ele>
        <time>2020-08-21T09:10:59.807Z</time>
      </trkpt>
      <trkpt lat="68.20312" lon="13.88068">
        <ele>34.49962</ele>
        <time>2020-08-21T09:11:56.802Z</time>
      </trkpt>
      <trkpt lat="68.20453" lon="13.88348">
        <ele>38.739599</ele>
        <time>2020-08-21T09:13:35.776Z</time>
      </trkpt>
      <trkpt lat="68.20507" lon="13.88497">
        <ele>39.530027</ele>
        <time>2020-08-21T09:15:08.739Z</time>
      </trkpt>
      <trkpt lat="68.20523" lon="13.89064">
        <ele>36.890713</ele>
        <time>2020-08-21T09:16:06.749Z</time>
      </trkpt>
      <trkpt lat="68.20415" lon="13.89562">
        <ele>38.365839</ele>
        <time>2020-08-21T09:16:55.757Z</time>
      </trkpt>
      <trkpt lat="68.20205" lon="13.89735">
        <ele>39.968056</ele>
        <time>2020-08-21T09:17:44.752Z</time>
      </trkpt>
      <trkpt lat="68.20007" lon="13.89781">
        <ele>41.660676</ele>
        <time>2020-08-21T09:18:29.772Z</time>
      </trkpt>
      <trkpt lat="68.19806" lon="13.89494">
        <ele>44.935988</ele>
        <time>2020-08-21T09:19:20.754Z</time>
      </trkpt>
      <trkpt lat="68.19614" lon="13.89686">
        <ele>46.772675</ele>
        <time>2020-08-21T09:20:19.784Z</time>
      </trkpt>
      <trkpt lat="68.1939" lon="13.89483">
        <ele>43.376388</ele>
        <time>2020-08-21T09:20:59.758Z</time>
      </trkpt>
      <trkpt lat="68.19176" lon="13.89288">
        <ele>38.78717</ele>
        <time>2020-08-21T09:21:39.787Z</time>
      </trkpt>
      <trkpt lat="68.18934" lon="13.89253">
        <ele>40.237272</ele>
        <time>2020-08-21T09:22:26.750Z</time>
      </trkpt>
      <trkpt lat="68.18719" lon="13.8924">
        <ele>42.068035</ele>
        <time>2020-08-21T09:23:10.771Z</time>
      </trkpt>
      <trkpt lat="68.1851" lon="13.89312">
        <ele>46.315193</ele>
        <time>2020-08-21T09:24:05.773Z</time>
      </trkpt>
      <trkpt lat="68.1842" lon="13.89857">
        <ele>47.047944</ele>
        <time>2020-08-21T09:24:53.803Z</time>
      </trkpt>
      <trkpt lat="68.18308" lon="13.90401">
        <ele>47.937835</ele>
        <time>2020-08-21T09:25:50.773Z</time>
      </trkpt>
      <trkpt lat="68.18244" lon="13.91032">
        <ele>44.486088</ele>
        <time>2020-08-21T09:26:30.751Z</time>
      </trkpt>
      <trkpt lat="68.182" lon="13.91738">
        <ele>39.631548</ele>
        <time>2020-08-21T09:27:10.759Z</time>
      </trkpt>
      <trkpt lat="68.18336" lon="13.92149">
        <ele>41.221582</ele>
        <time>2020-08-21T09:27:56.756Z</time>
      </trkpt>
      <trkpt lat="68.18414" lon="13.92701">
        <ele>42.826131</ele>
        <time>2020-08-21T09:29:02.759Z</time>
      </trkpt>
      <trkpt lat="68.18603" lon="13.92951">
        <ele>40.355337</ele>
        <time>2020-08-21T09:29:46.748Z</time>
      </trkpt>
      <trkpt lat="68.18805" lon="13.93091">
        <ele>38.583723</ele>
        <time>2020-08-21T09:30:40.769Z</time>
      </trkpt>
      <trkpt lat="68.19015" lon="13.9324">
        <ele>39.544757</ele>
        <time>2020-08-21T09:31:41.765Z</time>
      </trkpt>
      <trkpt lat="68.19222" lon="13.93512">
        <ele>41.955606</ele>
        <time>2020-08-21T09:32:44.754Z</time>
      </trkpt>
      <trkpt lat="68.19416" lon="13.93795">
        <ele>41.948286</ele>
        <time>2020-08-21T09:33:33.780Z</time>
      </trkpt>
      <trkpt lat="68.19538" lon="13.94247">
        <ele>40.160662</ele>
        <time>2020-08-21T09:34:18.752Z</time>
      </trkpt>
      <trkpt lat="68.1963" lon="13.94755">
        <ele>42.651911</ele>
        <time>2020-08-21T09:35:05.757Z</time>
      </trkpt>
      <trkpt lat="68.19707" lon="13.95348">
        <ele>42.434425</ele>
        <time>2020-08-21T09:36:05.770Z</time>
      </trkpt>
      <trkpt lat="68.19735" lon="13.95939">
        <ele>39.307286</ele>
        <time>2020-08-21T09:36:45.746Z</time>
      </trkpt>
      <trkpt lat="68.19806" lon="13.96427">
        <ele>44.943654</ele>
        <time>2020-08-21T09:37:39.774Z</time>
      </trkpt>
      <trkpt lat="68.19968" lon="13.96754">
        <ele>48.582434</ele>
        <time>2020-08-21T09:38:46.769Z</time>
      </trkpt>
      <trkpt lat="68.20116" lon="13.97154">
        <ele>47.266599</ele>
        <time>2020-08-21T09:39:34.758Z</time>
      </trkpt>
      <trkpt lat="68.20166" lon="13.97835">
        <ele>44.481418</ele>
        <time>2020-08-21T09:40:14.778Z</time>
      </trkpt>
      <trkpt lat="68.20185" lon="13.98454">
        <ele>42.773011</ele>
        <time>2020-08-21T09:40:54.770Z</time>
      </trkpt>
      <trkpt lat="68.20175" lon="13.98988">
        <ele>44.188335</ele>
        <time>2020-08-21T09:41:34.763Z</time>
      </trkpt>
      <trkpt lat="68.20099" lon="13.99492">
        <ele>42.273786</ele>
        <time>2020-08-21T09:42:17.792Z</time>
      </trkpt>
      <trkpt lat="68.19897" lon="13.99573">
        <ele>42.733875</ele>
        <time>2020-08-21T09:42:59.779Z</time>
      </trkpt>
      <trkpt lat="68.19678" lon="13.99746">
        <ele>41.405998</ele>
        <time>2020-08-21T09:43:55.786Z</time>
      </trkpt>
      <trkpt lat="68.19521" lon="14.00086">
        <ele>42.709082</ele>
        <time>2020-08-21T09:44:41.762Z</time>
      </trkpt>
      <trkpt lat="68.19341" lon="14.00464">
        <ele>42.366298</ele>
        <time>2020-08-21T09:45:31.770Z</time>
      </trkpt>
      <trkpt lat="68.19185" lon="14.00947">
        <ele>40.375295</ele>
        <time>2020-08-21T09:46:24.750Z</time>
      </trkpt>
      <trkpt lat="68.19114" lon="14.01465">
        <ele>44.814748</ele>
        <time>2020-08-21T09:47:10.771Z</time>
      </trkpt>
      <trkpt lat="68.19158" lon="14.01992">
        <ele>46.401046</ele>
        <time>2020-08-21T09:48:17.776Z</time>
      </trkpt>
      <trkpt lat="68.19294" lon="14.02496">
        <ele>44.039755</ele>
        <time>2020-08-21T09:49:18.775Z</time>
      </trkpt>
      <trkpt lat="68.19457" lon="14.02856">
        <ele>43.555552</ele>
        <time>2020-08-21T09:50:03.774Z</time>
      </trkpt>
      <trkpt lat="68.19526" lon="14.03403">
        <ele>43.76199</ele>
        <time>2020-08-21T09:50:46.760Z</time>
      </trkpt>
      <trkpt lat="68.19707" lon="14.03618">
        <ele>41.254969</ele>
        <time>2020-08-21T09:51:47.768Z</time>
      </trkpt>
      <trkpt lat="68.19936" lon="14.03628">
        <ele>41.164229</ele>
        <time>2020-08-21T09:52:57.757Z</time>
      </trkpt>
      <trkpt lat="68.20147" lon="14.03593">
        <ele>37.973543</ele>
        <time>2020-08-21T09:53:38.799Z</time>
      </trkpt>
      <trkpt lat="68.20366" lon="14.03781">
        <ele>36.40009</ele>
        <time>2020-08-21T09:54:33.797Z</time>
      </trkpt>
      <trkpt lat="68.20566" lon="14.04055">
        <ele>38.507359</ele>
        <time>2020-08-21T09:55:29.777Z</time>
      </trkpt>
      <trkpt lat="68.20708" lon="14.0455">
        <ele>44.750846</ele>
        <time>2020-08-21T09:56:32.776Z</time>
      </trkpt>
      <trkpt lat="68.20826" lon="14.05058">
        <ele>44.228414</ele>
        <time>2020-08-21T09:57:26.767Z</time>
      </trkpt>
      <trkpt lat="68.20981" lon="14.05448">
        <ele>43.094306</ele>
        <time>2020-08-21T09:58:20.787Z</time>
      </trkpt>
      <trkpt lat="68.2119" lon="14.05484">
        <ele>43.022293</ele>
        <time>2020-08-21T09:59:21.766Z</time>
      </trkpt>
      <trkpt lat="68.2142" lon="14.05515">
        <ele>41.34485</ele>
        <time>2020-08-21T10:00:25.757Z</time>
      </trkpt>
      <trkpt lat="68.21609" lon="14.05693">
        <ele>46.333548</ele>
        <time>2020-08-21T10:01:25.790Z</time>
      </trkpt>
      <trkpt lat="68.21748" lon="14.0613">
        <ele>49.839555</ele>
        <time>2020-08-21T10:02:27.761Z</time>
      </trkpt>
      <trkpt lat="68.21916" lon="14.06595">
        <ele>43.750531</ele>
        <time>2020-08-21T10:03:10.796Z</time>
      </trkpt>
      <trkpt lat="68.221" lon="14.06961">
        <ele>40.494014</ele>
        <time>2020-08-21T10:03:52.762Z</time>
      </trkpt>
      <trkpt lat="68.22291" lon="14.07261">
        <ele>37.666102</ele>
        <time>2020-08-21T10:04:42.759Z</time>
      </trkpt>
      <trkpt lat="68.22488" lon="14.07526">
        <ele>36.701028</ele>
        <time>2020-08-21T10:05:33.779Z</time>
      </trkpt>
      <trkpt lat="68.227" lon="14.07673">
        <ele>39.143108</ele>
        <time>2020-08-21T10:06:32.759Z</time>
      </trkpt>
      <trkpt lat="68.22853" lon="14.08036">
        <ele>43.759328</ele>
        <time>2020-08-21T10:26:05.213Z</time>
      </trkpt>
      <trkpt lat="68.2302" lon="14.08405">
        <ele>43.265957</ele>
        <time>2020-08-21T10:26:56.213Z</time>
      </trkpt>
      <trkpt lat="68.23108" lon="14.08939">
        <ele>43.418515</ele>
        <time>2020-08-21T10:27:45.231Z</time>
      </trkpt>
      <trkpt lat="68.23173" lon="14.09523">
        <ele>43.447676</ele>
        <time>2020-08-21T10:28:37.214Z</time>
      </trkpt>
      <trkpt lat="68.23245" lon="14.10131">
        <ele>43.664938</ele>
        <time>2020-08-21T10:29:29.205Z</time>
      </trkpt>
      <trkpt lat="68.23311" lon="14.10703">
        <ele>46.514326</ele>
        <time>2020-08-21T10:30:29.205Z</time>
      </trkpt>
      <trkpt lat="68.23388" lon="14.11224">
        <ele>53.376645</ele>
        <time>2020-08-21T10:31:34.224Z</time>
      </trkpt>
      <trkpt lat="68.23577" lon="14.11498">
        <ele>53.405758</ele>
        <time>2020-08-21T10:32:34.223Z</time>
      </trkpt>
      <trkpt lat="68.23802" lon="14.11622">
        <ele>52.62981</ele>
        <time>2020-08-21T10:33:23.221Z</time>
      </trkpt>
      <trkpt lat="68.23993" lon="14.11778">
        <ele>53.018395</ele>
        <time>2020-08-21T10:34:03.213Z</time>
      </trkpt>
      <trkpt lat="68.2418" lon="14.11988">
        <ele>53.538212</ele>
        <time>2020-08-21T10:34:43.239Z</time>
      </trkpt>
      <trkpt lat="68.24326" lon="14.12357">
        <ele>52.089745</ele>
        <time>2020-08-21T10:35:25.219Z</time>
      </trkpt>
      <trkpt lat="68.24461" lon="14.12796">
        <ele>51.239649</ele>
        <time>2020-08-21T10:36:08.217Z</time>
      </trkpt>
      <trkpt lat="68.24608" lon="14.13222">
        <ele>50.105166</ele>
        <time>2020-08-21T10:36:56.226Z</time>
      </trkpt>
      <trkpt lat="68.24703" lon="14.13705">
        <ele>48.38666</ele>
        <time>2020-08-21T10:37:39.218Z</time>
      </trkpt>
      <trkpt lat="68.24716" lon="14.14498">
        <ele>43.700536</ele>
        <time>2020-08-21T10:38:19.227Z</time>
      </trkpt>
      <trkpt lat="68.24866" lon="14.14972">
        <ele>42.438884</ele>
        <time>2020-08-21T10:39:04.211Z</time>
      </trkpt>
      <trkpt lat="68.25033" lon="14.15281">
        <ele>42.594537</ele>
        <time>2020-08-21T10:39:54.221Z</time>
      </trkpt>
      <trkpt lat="68.25218" lon="14.15542">
        <ele>44.022961</ele>
        <time>2020-08-21T10:40:42.224Z</time>
      </trkpt>
      <trkpt lat="68.25378" lon="14.15799">
        <ele>48.978193</ele>
        <time>2020-08-21T10:41:49.216Z</time>
      </trkpt>
      <trkpt lat="68.25558" lon="14.16099">
        <ele>52.670824</ele>
        <time>2020-08-21T10:43:02.242Z</time>
      </trkpt>
      <trkpt lat="68.25754" lon="14.16319">
        <ele>60.040077</ele>
        <time>2020-08-21T10:44:21.229Z</time>
      </trkpt>
      <trkpt lat="68.25948" lon="14.16411">
        <ele>61.195112</ele>
        <time>2020-08-21T10:45:20.229Z</time>
      </trkpt>
      <trkpt lat="68.26147" lon="14.16351">
        <ele>58.65639</ele>
        <time>2020-08-21T10:46:05.233Z</time>
      </trkpt>
      <trkpt lat="68.26369" lon="14.16048">
        <ele>55.180928</ele>
        <time>2020-08-21T10:46:54.225Z</time>
      </trkpt>
      <trkpt lat="68.26585" lon="14.15724">
        <ele>46.191904</ele>
        <time>2020-08-21T10:47:23.220Z</time>
      </trkpt>
      <trkpt lat="68.26741" lon="14.15292">
        <ele>41.520741</ele>
        <time>2020-08-21T10:48:05.220Z</time>
      </trkpt>
      <trkpt lat="68.26824" lon="14.15331">
        <ele>48.173626</ele>
        <time>2020-08-21T10:49:15.234Z</time>
      </trkpt>
      <trkpt lat="68.26817" lon="14.1599">
        <ele>45.914705</ele>
        <time>2020-08-21T10:50:19.228Z</time>
      </trkpt>
      <trkpt lat="68.26741" lon="14.1674">
        <ele>39.001372</ele>
        <time>2020-08-21T10:50:59.214Z</time>
      </trkpt>
      <trkpt lat="68.26615" lon="14.1725">
        <ele>38.442627</ele>
        <time>2020-08-21T10:51:46.246Z</time>
      </trkpt>
      <trkpt lat="68.26497" lon="14.17831">
        <ele>42.843801</ele>
        <time>2020-08-21T10:52:26.229Z</time>
      </trkpt>
      <trkpt lat="68.26363" lon="14.18304">
        <ele>43.533033</ele>
        <time>2020-08-21T10:53:08.235Z</time>
      </trkpt>
      <trkpt lat="68.2624" lon="14.18787">
        <ele>44.554081</ele>
        <time>2020-08-21T10:53:48.222Z</time>
      </trkpt>
      <trkpt lat="68.26116" lon="14.19232">
        <ele>46.501077</ele>
        <time>2020-08-21T10:54:29.225Z</time>
      </trkpt>
      <trkpt lat="68.25942" lon="14.19536">
        <ele>47.908207</ele>
        <time>2020-08-21T10:55:12.235Z</time>
      </trkpt>
      <trkpt lat="68.25773" lon="14.19884">
        <ele>45.520283</ele>
        <time>2020-08-21T10:55:54.215Z</time>
      </trkpt>
      <trkpt lat="68.25717" lon="14.20399">
        <ele>43.881513</ele>
        <time>2020-08-21T10:56:34.219Z</time>
      </trkpt>
      <trkpt lat="68.25776" lon="14.20992">
        <ele>43.313493</ele>
        <time>2020-08-21T10:57:14.220Z</time>
      </trkpt>
      <trkpt lat="68.25837" lon="14.21535">
        <ele>46.443442</ele>
        <time>2020-08-21T10:57:54.231Z</time>
      </trkpt>
      <trkpt lat="68.25886" lon="14.22078">
        <ele>47.109597</ele>
        <time>2020-08-21T10:58:37.214Z</time>
      </trkpt>
      <trkpt lat="68.2593" lon="14.22627">
        <ele>47.586232</ele>
        <time>2020-08-21T10:59:17.218Z</time>
      </trkpt>
      <trkpt lat="68.25999" lon="14.23196">
        <ele>46.814914</ele>
        <time>2020-08-21T11:00:09.214Z</time>
      </trkpt>
      <trkpt lat="68.26116" lon="14.23669">
        <ele>47.11398</ele>
        <time>2020-08-21T11:00:54.239Z</time>
      </trkpt>
      <trkpt lat="68.26277" lon="14.2408">
        <ele>55.320778</ele>
        <time>2020-08-21T11:02:05.226Z</time>
      </trkpt>
      <trkpt lat="68.26315" lon="14.24587">
        <ele>73.781924</ele>
        <time>2020-08-21T11:03:55.261Z</time>
      </trkpt>
      <trkpt lat="68.26264" lon="14.25113">
        <ele>77.94423</ele>
        <time>2020-08-21T11:05:21.249Z</time>
      </trkpt>
      <trkpt lat="68.26206" lon="14.2571">
        <ele>62.278322</ele>
        <time>2020-08-21T11:05:47.226Z</time>
      </trkpt>
      <trkpt lat="68.26141" lon="14.26375">
        <ele>47.424188</ele>
        <time>2020-08-21T11:06:08.208Z</time>
      </trkpt>
      <trkpt lat="68.26062" lon="14.26954">
        <ele>45.506026</ele>
        <time>2020-08-21T11:06:43.237Z</time>
      </trkpt>
      <trkpt lat="68.2606" lon="14.27182">
        <ele>50.001108</ele>
        <time>2020-08-21T11:10:27.224Z</time>
      </trkpt>
      <trkpt lat="68.25917" lon="14.27529">
        <ele>59.256929</ele>
        <time>2020-08-21T11:12:05.220Z</time>
      </trkpt>
      <trkpt lat="68.25641" lon="14.27469">
        <ele>53.966045</ele>
        <time>2020-08-21T11:12:55.220Z</time>
      </trkpt>
      <trkpt lat="68.25335" lon="14.27519">
        <ele>46.927819</ele>
        <time>2020-08-21T11:13:35.232Z</time>
      </trkpt>
      <trkpt lat="68.25129" lon="14.2778">
        <ele>46.970012</ele>
        <time>2020-08-21T11:14:15.258Z</time>
      </trkpt>
      <trkpt lat="68.24933" lon="14.28033">
        <ele>55.634853</ele>
        <time>2020-08-21T11:15:25.224Z</time>
      </trkpt>
      <trkpt lat="68.24692" lon="14.2808">
        <ele>55.789713</ele>
        <time>2020-08-21T11:16:13.237Z</time>
      </trkpt>
      <trkpt lat="68.24415" lon="14.2811">
        <ele>46.931694</ele>
        <time>2020-08-21T11:16:53.221Z</time>
      </trkpt>
      <trkpt lat="68.24181" lon="14.28138">
        <ele>47.191353</ele>
        <time>2020-08-21T11:17:33.243Z</time>
      </trkpt>
      <trkpt lat="68.24018" lon="14.2783">
        <ele>44.74663</ele>
        <time>2020-08-21T11:18:13.228Z</time>
      </trkpt>
      <trkpt lat="68.24049" lon="14.27249">
        <ele>44.313523</ele>
        <time>2020-08-21T11:18:58.271Z</time>
      </trkpt>
      <trkpt lat="68.24059" lon="14.26698">
        <ele>46.567015</ele>
        <time>2020-08-21T11:19:41.224Z</time>
      </trkpt>
      <trkpt lat="68.24022" lon="14.26168">
        <ele>46.845846</ele>
        <time>2020-08-21T11:20:21.236Z</time>
      </trkpt>
      <trkpt lat="68.23953" lon="14.25616">
        <ele>46.952522</ele>
        <time>2020-08-21T11:21:17.242Z</time>
      </trkpt>
      <trkpt lat="68.23857" lon="14.25072">
        <ele>49.153211</ele>
        <time>2020-08-21T11:22:18.246Z</time>
      </trkpt>
      <trkpt lat="68.23687" lon="14.24585">
        <ele>45.216594</ele>
        <time>2020-08-21T11:22:53.242Z</time>
      </trkpt>
      <trkpt lat="68.23538" lon="14.24165">
        <ele>46.84347</ele>
        <time>2020-08-21T11:23:36.218Z</time>
      </trkpt>
      <trkpt lat="68.23391" lon="14.23744">
        <ele>52.136027</ele>
        <time>2020-08-21T11:24:38.245Z</time>
      </trkpt>
      <trkpt lat="68.23239" lon="14.23311">
        <ele>57.890566</ele>
        <time>2020-08-21T11:25:47.237Z</time>
      </trkpt>
      <trkpt lat="68.23097" lon="14.22912">
        <ele>58.665606</ele>
        <time>2020-08-21T11:26:32.236Z</time>
      </trkpt>
      <trkpt lat="68.22945" lon="14.22485">
        <ele>64.360025</ele>
        <time>2020-08-21T11:27:38.280Z</time>
      </trkpt>
      <trkpt lat="68.22719" lon="14.22161">
        <ele>62.702781</ele>
        <time>2020-08-21T11:28:23.220Z</time>
      </trkpt>
      <trkpt lat="68.2247" lon="14.2192">
        <ele>63.246298</ele>
        <time>2020-08-21T11:29:08.261Z</time>
      </trkpt>
      <trkpt lat="68.22248" lon="14.21709">
        <ele>62.828682</ele>
        <time>2020-08-21T11:29:49.259Z</time>
      </trkpt>
      <trkpt lat="68.22028" lon="14.21538">
        <ele>56.476652</ele>
        <time>2020-08-21T11:30:20.220Z</time>
      </trkpt>
      <trkpt lat="68.2175" lon="14.21465">
        <ele>49.974644</ele>
        <time>2020-08-21T11:30:58.236Z</time>
      </trkpt>
      <trkpt lat="68.21519" lon="14.2149">
        <ele>57.301065</ele>
        <time>2020-08-21T11:32:00.239Z</time>
      </trkpt>
      <trkpt lat="68.21335" lon="14.21785">
        <ele>60.604449</ele>
        <time>2020-08-21T11:32:46.232Z</time>
      </trkpt>
      <trkpt lat="68.21162" lon="14.22166">
        <ele>54.076249</ele>
        <time>2020-08-21T11:33:06.249Z</time>
      </trkpt>
      <trkpt lat="68.20897" lon="14.22118">
        <ele>48.686942</ele>
        <time>2020-08-21T11:33:44.234Z</time>
      </trkpt>
      <trkpt lat="68.20679" lon="14.22199">
        <ele>59.309549</ele>
        <time>2020-08-21T11:35:06.226Z</time>
      </trkpt>
      <trkpt lat="68.20599" lon="14.22679">
        <ele>65.088186</ele>
        <time>2020-08-21T11:36:10.221Z</time>
      </trkpt>
      <trkpt lat="68.20598" lon="14.23244">
        <ele>68.085978</ele>
        <time>2020-08-21T11:37:15.222Z</time>
      </trkpt>
      <trkpt lat="68.20603" lon="14.23774">
        <ele>75.88977</ele>
        <time>2020-08-21T11:38:33.252Z</time>
      </trkpt>
      <trkpt lat="68.20453" lon="14.24057">
        <ele>72.331914</ele>
        <time>2020-08-21T11:39:20.217Z</time>
      </trkpt>
      <trkpt lat="68.20324" lon="14.2357">
        <ele>55.881889</ele>
        <time>2020-08-21T11:39:42.220Z</time>
      </trkpt>
      <trkpt lat="68.20228" lon="14.22963">
        <ele>47.349106</ele>
        <time>2020-08-21T11:40:24.247Z</time>
      </trkpt>
      <trkpt lat="68.2014" lon="14.2242">
        <ele>48.834939</ele>
        <time>2020-08-21T11:41:23.226Z</time>
      </trkpt>
      <trkpt lat="68.19969" lon="14.21991">
        <ele>53.486433</ele>
        <time>2020-08-21T11:42:08.268Z</time>
      </trkpt>
      <trkpt lat="68.19768" lon="14.21769">
        <ele>53.848405</ele>
        <time>2020-08-21T11:43:05.261Z</time>
      </trkpt>
      <trkpt lat="68.19543" lon="14.21708">
        <ele>55.222725</ele>
        <time>2020-08-21T11:43:57.227Z</time>
      </trkpt>
      <trkpt lat="68.1929" lon="14.21672">
        <ele>49.399398</ele>
        <time>2020-08-21T11:44:37.230Z</time>
      </trkpt>
      <trkpt lat="68.19028" lon="14.21706">
        <ele>46.8582</ele>
        <time>2020-08-21T11:45:19.222Z</time>
      </trkpt>
      <trkpt lat="68.18867" lon="14.22067">
        <ele>53.59153</ele>
        <time>2020-08-21T11:46:13.246Z</time>
      </trkpt>
      <trkpt lat="68.18672" lon="14.22542">
        <ele>47.841614</ele>
        <time>2020-08-21T11:46:57.230Z</time>
      </trkpt>
      <trkpt lat="68.18489" lon="14.22326">
        <ele>45.898659</ele>
        <time>2020-08-21T11:47:37.225Z</time>
      </trkpt>
      <trkpt lat="68.18338" lon="14.21849">
        <ele>48.822113</ele>
        <time>2020-08-21T11:48:31.243Z</time>
      </trkpt>
      <trkpt lat="68.18143" lon="14.21467">
        <ele>53.562308</ele>
        <time>2020-08-21T11:49:18.254Z</time>
      </trkpt>
      <trkpt lat="68.17943" lon="14.21283">
        <ele>62.003828</ele>
        <time>2020-08-21T11:50:20.233Z</time>
      </trkpt>
      <trkpt lat="68.17758" lon="14.21078">
        <ele>66.729118</ele>
        <time>2020-08-21T11:52:05.224Z</time>
      </trkpt>
      <trkpt lat="68.17475" lon="14.2081">
        <ele>56.771374</ele>
        <time>2020-08-21T11:52:47.222Z</time>
      </trkpt>
      <trkpt lat="68.17206" lon="14.21142">
        <ele>46.434928</ele>
        <time>2020-08-21T11:53:27.237Z</time>
      </trkpt>
      <trkpt lat="68.17154" lon="14.21666">
        <ele>39.23714</ele>
        <time>2020-08-21T11:53:55.222Z</time>
      </trkpt>
      <trkpt lat="68.17099" lon="14.22096">
        <ele>44.581024</ele>
        <time>2020-08-21T11:54:36.234Z</time>
      </trkpt>
      <trkpt lat="68.16918" lon="14.22339">
        <ele>47.858676</ele>
        <time>2020-08-21T11:55:36.237Z</time>
      </trkpt>
      <trkpt lat="68.16764" lon="14.21969">
        <ele>52.932719</ele>
        <time>2020-08-21T11:56:36.265Z</time>
      </trkpt>
      <trkpt lat="68.16604" lon="14.2149">
        <ele>48.996136</ele>
        <time>2020-08-21T11:57:15.261Z</time>
      </trkpt>
      <trkpt lat="68.16379" lon="14.21448">
        <ele>45.433439</ele>
        <time>2020-08-21T11:57:56.229Z</time>
      </trkpt>
      <trkpt lat="68.16156" lon="14.21452">
        <ele>43.488217</ele>
        <time>2020-08-21T11:58:38.223Z</time>
      </trkpt>
      <trkpt lat="68.15967" lon="14.2146">
        <ele>55.338045</ele>
        <time>2020-08-21T11:59:51.249Z</time>
      </trkpt>
      <trkpt lat="68.158" lon="14.21054">
        <ele>58.17411</ele>
        <time>2020-08-21T12:01:40.256Z</time>
      </trkpt>
      <trkpt lat="68.15659" lon="14.20558">
        <ele>46.142472</ele>
        <time>2020-08-21T12:02:07.242Z</time>
      </trkpt>
      <trkpt lat="68.15482" lon="14.20216">
        <ele>44.248028</ele>
        <time>2020-08-21T12:02:49.225Z</time>
      </trkpt>
      <trkpt lat="68.15282" lon="14.20075">
        <ele>53.177194</ele>
        <time>2020-08-21T12:03:42.229Z</time>
      </trkpt>
      <trkpt lat="68.15088" lon="14.20036">
        <ele>51.266062</ele>
        <time>2020-08-21T12:04:39.222Z</time>
      </trkpt>
      <trkpt lat="68.14969" lon="14.20338">
        <ele>50.206319</ele>
        <time>2020-08-21T12:05:38.249Z</time>
      </trkpt>
      <trkpt lat="68.14954" lon="14.20305">
        <ele>39.358922</ele>
        <time>2020-08-21T12:42:14.272Z</time>
      </trkpt>
      <trkpt lat="68.15099" lon="14.20023">
        <ele>44.082369</ele>
        <time>2020-08-21T12:43:44.245Z</time>
      </trkpt>
      <trkpt lat="68.15282" lon="14.2007">
        <ele>49.351718</ele>
        <time>2020-08-21T12:45:00.233Z</time>
      </trkpt>
      <trkpt lat="68.15463" lon="14.20259">
        <ele>50.80324</ele>
        <time>2020-08-21T12:55:10.250Z</time>
      </trkpt>
      <trkpt lat="68.1563" lon="14.20586">
        <ele>52.121007</ele>
        <time>2020-08-21T12:56:26.240Z</time>
      </trkpt>
      <trkpt lat="68.15778" lon="14.20972">
        <ele>46.277955</ele>
        <time>2020-08-21T12:57:29.256Z</time>
      </trkpt>
      <trkpt lat="68.1592" lon="14.21363">
        <ele>55.476399</ele>
        <time>2020-08-21T12:59:09.261Z</time>
      </trkpt>
      <trkpt lat="68.16172" lon="14.21443">
        <ele>46.438285</ele>
        <time>2020-08-21T12:59:47.260Z</time>
      </trkpt>
      <trkpt lat="68.16399" lon="14.21473">
        <ele>44.676868</ele>
        <time>2020-08-21T13:00:32.250Z</time>
      </trkpt>
      <trkpt lat="68.16622" lon="14.21523">
        <ele>45.258228</ele>
        <time>2020-08-21T13:01:31.256Z</time>
      </trkpt>
      <trkpt lat="68.16772" lon="14.22015">
        <ele>47.978899</ele>
        <time>2020-08-21T13:02:24.252Z</time>
      </trkpt>
      <trkpt lat="68.16948" lon="14.22302">
        <ele>45.434136</ele>
        <time>2020-08-21T13:03:21.251Z</time>
      </trkpt>
      <trkpt lat="68.17164" lon="14.22067">
        <ele>44.54551</ele>
        <time>2020-08-21T13:06:57.251Z</time>
      </trkpt>
      <trkpt lat="68.17132" lon="14.21524">
        <ele>41.170389</ele>
        <time>2020-08-21T13:07:41.271Z</time>
      </trkpt>
      <trkpt lat="68.17214" lon="14.21138">
        <ele>46.312348</ele>
        <time>2020-08-21T13:08:53.253Z</time>
      </trkpt>
      <trkpt lat="68.17405" lon="14.20837">
        <ele>49.064523</ele>
        <time>2020-08-21T13:09:57.255Z</time>
      </trkpt>
      <trkpt lat="68.1761" lon="14.20861">
        <ele>53.219047</ele>
        <time>2020-08-21T13:11:00.240Z</time>
      </trkpt>
      <trkpt lat="68.17794" lon="14.211">
        <ele>58.082537</ele>
        <time>2020-08-21T13:12:13.236Z</time>
      </trkpt>
      <trkpt lat="68.18001" lon="14.21333">
        <ele>49.705485</ele>
        <time>2020-08-21T13:12:59.267Z</time>
      </trkpt>
      <trkpt lat="68.18223" lon="14.21597">
        <ele>41.070136</ele>
        <time>2020-08-21T13:13:36.237Z</time>
      </trkpt>
      <trkpt lat="68.1839" lon="14.22029">
        <ele>42.536867</ele>
        <time>2020-08-21T13:14:31.256Z</time>
      </trkpt>
      <trkpt lat="68.18553" lon="14.2253">
        <ele>44.459192</ele>
        <time>2020-08-21T13:15:13.262Z</time>
      </trkpt>
      <trkpt lat="68.18763" lon="14.2246">
        <ele>44.351096</ele>
        <time>2020-08-21T13:15:54.275Z</time>
      </trkpt>
      <trkpt lat="68.18878" lon="14.22004">
        <ele>47.061627</ele>
        <time>2020-08-21T13:17:10.252Z</time>
      </trkpt>
      <trkpt lat="68.19098" lon="14.21685">
        <ele>42.553964</ele>
        <time>2020-08-21T13:17:53.279Z</time>
      </trkpt>
      <trkpt lat="68.19333" lon="14.21678">
        <ele>41.638112</ele>
        <time>2020-08-21T13:18:38.250Z</time>
      </trkpt>
      <trkpt lat="68.19538" lon="14.21707">
        <ele>48.897511</ele>
        <time>2020-08-21T13:19:39.271Z</time>
      </trkpt>
      <trkpt lat="68.19781" lon="14.21788">
        <ele>45.205702</ele>
        <time>2020-08-21T13:20:29.253Z</time>
      </trkpt>
      <trkpt lat="68.20038" lon="14.22108">
        <ele>41.210183</ele>
        <time>2020-08-21T13:21:10.259Z</time>
      </trkpt>
      <trkpt lat="68.20169" lon="14.22628">
        <ele>40.551082</ele>
        <time>2020-08-21T13:21:56.242Z</time>
      </trkpt>
      <trkpt lat="68.20257" lon="14.23179">
        <ele>40.514118</ele>
        <time>2020-08-21T13:22:36.242Z</time>
      </trkpt>
      <trkpt lat="68.20341" lon="14.23707">
        <ele>45.514914</ele>
        <time>2020-08-21T13:23:25.248Z</time>
      </trkpt>
      <trkpt lat="68.20481" lon="14.24049">
        <ele>63.132127</ele>
        <time>2020-08-21T13:25:12.291Z</time>
      </trkpt>
      <trkpt lat="68.20626" lon="14.24147">
        <ele>73.456867</ele>
        <time>2020-08-21T13:27:02.258Z</time>
      </trkpt>
      <trkpt lat="68.20679" lon="14.24706">
        <ele>78.786024</ele>
        <time>2020-08-21T13:28:21.258Z</time>
      </trkpt>
      <trkpt lat="68.20767" lon="14.25266">
        <ele>75.855678</ele>
        <time>2020-08-21T13:29:01.277Z</time>
      </trkpt>
      <trkpt lat="68.20819" lon="14.25962">
        <ele>72.739989</ele>
        <time>2020-08-21T13:29:43.239Z</time>
      </trkpt>
      <trkpt lat="68.20839" lon="14.26513">
        <ele>69.115641</ele>
        <time>2020-08-21T13:30:23.243Z</time>
      </trkpt>
      <trkpt lat="68.20791" lon="14.2705">
        <ele>68.80832</ele>
        <time>2020-08-21T13:31:03.253Z</time>
      </trkpt>
      <trkpt lat="68.20724" lon="14.27585">
        <ele>75.281426</ele>
        <time>2020-08-21T13:31:49.261Z</time>
      </trkpt>
      <trkpt lat="68.20662" lon="14.28235">
        <ele>73.143588</ele>
        <time>2020-08-21T13:32:51.246Z</time>
      </trkpt>
      <trkpt lat="68.21192" lon="14.3024">
        <ele>42.029568</ele>
        <time>2020-08-21T13:34:52.254Z</time>
      </trkpt>
      <trkpt lat="68.21326" lon="14.30732">
        <ele>46.080377</ele>
        <time>2020-08-21T13:35:29.258Z</time>
      </trkpt>
      <trkpt lat="68.21466" lon="14.31323">
        <ele>43.322647</ele>
        <time>2020-08-21T13:36:09.253Z</time>
      </trkpt>
      <trkpt lat="68.21509" lon="14.32033">
        <ele>39.700732</ele>
        <time>2020-08-21T13:36:51.269Z</time>
      </trkpt>
      <trkpt lat="68.21452" lon="14.32615">
        <ele>42.220768</ele>
        <time>2020-08-21T13:37:36.259Z</time>
      </trkpt>
      <trkpt lat="68.21387" lon="14.33172">
        <ele>44.597002</ele>
        <time>2020-08-21T13:38:31.268Z</time>
      </trkpt>
      <trkpt lat="68.2131" lon="14.33847">
        <ele>41.770509</ele>
        <time>2020-08-21T13:39:11.293Z</time>
      </trkpt>
      <trkpt lat="68.21227" lon="14.34578">
        <ele>37.39077</ele>
        <time>2020-08-21T13:39:53.279Z</time>
      </trkpt>
      <trkpt lat="68.2116" lon="14.35127">
        <ele>49.844791</ele>
        <time>2020-08-21T13:40:59.274Z</time>
      </trkpt>
      <trkpt lat="68.2113" lon="14.35658">
        <ele>57.747561</ele>
        <time>2020-08-21T13:42:43.269Z</time>
      </trkpt>
      <trkpt lat="68.21164" lon="14.36304">
        <ele>51.884059</ele>
        <time>2020-08-21T13:43:23.276Z</time>
      </trkpt>
      <trkpt lat="68.212" lon="14.37018">
        <ele>43.148118</ele>
        <time>2020-08-21T13:43:58.291Z</time>
      </trkpt>
      <trkpt lat="68.21229" lon="14.37568">
        <ele>43.737289</ele>
        <time>2020-08-21T13:44:38.297Z</time>
      </trkpt>
      <trkpt lat="68.21264" lon="14.38271">
        <ele>40.569964</ele>
        <time>2020-08-21T13:45:18.257Z</time>
      </trkpt>
      <trkpt lat="68.21298" lon="14.38953">
        <ele>39.84519</ele>
        <time>2020-08-21T13:45:58.261Z</time>
      </trkpt>
      <trkpt lat="68.21348" lon="14.39541">
        <ele>45.798236</ele>
        <time>2020-08-21T13:46:51.294Z</time>
      </trkpt>
      <trkpt lat="68.21461" lon="14.40049">
        <ele>45.376911</ele>
        <time>2020-08-21T13:47:43.242Z</time>
      </trkpt>
      <trkpt lat="68.21416" lon="14.40735">
        <ele>41.307704</ele>
        <time>2020-08-21T13:48:23.271Z</time>
      </trkpt>
      <trkpt lat="68.21316" lon="14.41262">
        <ele>47.181425</ele>
        <time>2020-08-21T13:49:24.278Z</time>
      </trkpt>
      <trkpt lat="68.21296" lon="14.4181">
        <ele>56.438933</ele>
        <time>2020-08-21T13:50:55.266Z</time>
      </trkpt>
      <trkpt lat="68.21365" lon="14.42342">
        <ele>55.89816</ele>
        <time>2020-08-21T13:51:57.275Z</time>
      </trkpt>
      <trkpt lat="68.21464" lon="14.43124">
        <ele>43.635029</ele>
        <time>2020-08-21T13:52:37.261Z</time>
      </trkpt>
      <trkpt lat="68.21516" lon="14.43704">
        <ele>43.150253</ele>
        <time>2020-08-21T13:53:20.287Z</time>
      </trkpt>
      <trkpt lat="68.21512" lon="14.43915">
        <ele>38.54869</ele>
        <time>2020-08-21T13:54:35.258Z</time>
      </trkpt>
      <trkpt lat="68.21677" lon="14.44252">
        <ele>36.049318</ele>
        <time>2020-08-21T13:55:22.262Z</time>
      </trkpt>
    </trkseg>
  </trk>
</gpx>